sensor_id;sensor_type;location;lat;lon;timestamp;pressure;altitude;pressure_sealevel;temperature;humidity
19843;BME280;10082;51.038;6.992;2023-02-12T00:00:07;102207.41;;;-144.33;100.00
19843;BME280;10082;51.038;6.992;2023-02-12T00:02:53;102193.34;;;-144.33;100.00
19843;BME280;10082;51.038;6.992;2023-02-12T00:05:20;102737.56;;;-144.33;100.00
19843;BME280;10082;51.038;6.992;2023-02-12T00:07:47;102759.66;;;-144.33;100.00
19843;BME280;10082;51.038;6.992;2023-02-12T00:10:14;102823.91;;;-144.33;100.00
19843;BME280;10082;51.038;6.992;2023-02-12T00:12:42;102809.84;;;-144.33;100.00
19843;BME280;10082;51.038;6.992;2023-02-12T00:15:08;103169.38;;;-144.33;100.00
19843;BME280;10082;51.038;6.992;2023-02-12T00:17:35;103364.19;;;-144.33;100.00
19843;BME280;10082;51.038;6.992;2023-02-12T00:20:05;103123.16;;;-144.33;100.00
19843;BME280;10082;51.038;6.992;2023-02-12T00:22:32;103416.44;;;-144.33;100.00
19843;BME280;10082;51.038;6.992;2023-02-12T00:24:59;103591.19;;;-144.33;100.00
19843;BME280;10082;51.038;6.992;2023-02-12T00:27:25;103547.00;;;-144.33;100.00
19843;BME280;10082;51.038;6.992;2023-02-12T00:29:52;103563.06;;;-144.33;100.00
19843;BME280;10082;51.038;6.992;2023-02-12T00:32:19;103848.31;;;-144.33;100.00
19843;BME280;10082;51.038;6.992;2023-02-12T00:34:46;103713.72;;;-144.33;100.00
19843;BME280;10082;51.038;6.992;2023-02-12T00:37:16;103587.16;;;-144.33;100.00
19843;BME280;10082;51.038;6.992;2023-02-12T00:39:43;104005.00;;;-144.33;100.00
19843;BME280;10082;51.038;6.992;2023-02-12T00:42:10;103858.34;;;-144.33;100.00
19843;BME280;10082;51.038;6.992;2023-02-12T00:44:37;103852.31;;;-144.33;100.00
19843;BME280;10082;51.038;6.992;2023-02-12T00:47:04;103643.41;;;-144.33;100.00
19843;BME280;10082;51.038;6.992;2023-02-12T00:49:31;103703.69;;;-144.33;100.00
19843;BME280;10082;51.038;6.992;2023-02-12T00:51:59;103864.38;;;-144.33;100.00
19843;BME280;10082;51.038;6.992;2023-02-12T00:54:28;103834.25;;;-144.33;100.00
19843;BME280;10082;51.038;6.992;2023-02-12T00:56:55;103880.44;;;-144.33;100.00
19843;BME280;10082;51.038;6.992;2023-02-12T00:59:28;104179.78;;;-144.33;100.00
19843;BME280;10082;51.038;6.992;2023-02-12T01:02:01;104380.69;;;-144.33;100.00
19843;BME280;10082;51.038;6.992;2023-02-12T01:04:28;104503.25;;;-144.33;100.00
19843;BME280;10082;51.038;6.992;2023-02-12T01:06:55;104680.06;;;-144.33;100.00
19843;BME280;10082;51.038;6.992;2023-02-12T01:09:22;104876.97;;;-144.33;100.00
19843;BME280;10082;51.038;6.992;2023-02-12T01:11:50;104766.47;;;-144.33;100.00
19843;BME280;10082;51.038;6.992;2023-02-12T01:14:17;105278.88;;;-144.33;100.00
19843;BME280;10082;51.038;6.992;2023-02-12T01:16:44;105415.53;;;-144.33;100.00
19843;BME280;10082;51.038;6.992;2023-02-12T01:19:11;105266.81;;;-144.33;100.00
19843;BME280;10082;51.038;6.992;2023-02-12T01:21:38;105118.13;;;-144.33;100.00
19843;BME280;10082;51.038;6.992;2023-02-12T01:24:06;105168.34;;;-144.33;100.00
19843;BME280;10082;51.038;6.992;2023-02-12T01:26:32;105288.94;;;-144.33;100.00
19843;BME280;10082;51.038;6.992;2023-02-12T01:29:03;105413.53;;;-144.33;100.00
19843;BME280;10082;51.038;6.992;2023-02-12T01:31:33;105526.06;;;-144.33;100.00
19843;BME280;10082;51.038;6.992;2023-02-12T01:34:01;105564.25;;;-144.33;100.00
19843;BME280;10082;51.038;6.992;2023-02-12T01:36:30;105560.22;;;-144.33;100.00
19843;BME280;10082;51.038;6.992;2023-02-12T01:38:58;105684.84;;;-144.33;100.00
19843;BME280;10082;51.038;6.992;2023-02-12T01:41:28;105692.88;;;-144.33;100.00
19843;BME280;10082;51.038;6.992;2023-02-12T01:44:15;105656.69;;;-144.33;100.00
19843;BME280;10082;51.038;6.992;2023-02-12T01:46:45;106018.47;;;-144.33;100.00
19843;BME280;10082;51.038;6.992;2023-02-12T01:49:16;106082.78;;;-144.33;100.00
19843;BME280;10082;51.038;6.992;2023-02-12T01:51:45;105998.38;;;-144.33;100.00
19843;BME280;10082;51.038;6.992;2023-02-12T01:54:14;106118.97;;;-144.33;100.00
19843;BME280;10082;51.038;6.992;2023-02-12T01:56:42;106080.78;;;-144.33;100.00
19843;BME280;10082;51.038;6.992;2023-02-12T01:59:10;106112.94;;;-144.33;100.00
19843;BME280;10082;51.038;6.992;2023-02-12T02:01:39;106108.91;;;-144.33;100.00
19843;BME280;10082;51.038;6.992;2023-02-12T02:04:09;106279.78;;;-144.33;100.00
19843;BME280;10082;51.038;6.992;2023-02-12T02:06:45;106193.34;;;-144.33;100.00
19843;BME280;10082;51.038;6.992;2023-02-12T02:09:15;106478.78;;;-144.33;100.00
19843;BME280;10082;51.038;6.992;2023-02-12T02:11:42;106388.31;;;-144.33;100.00
19843;BME280;10082;51.038;6.992;2023-02-12T02:14:27;106402.38;;;-144.33;100.00
19843;BME280;10082;51.038;6.992;2023-02-12T02:17:27;106581.28;;;-144.33;100.00
19843;BME280;10082;51.038;6.992;2023-02-12T02:23:09;106671.75;;;-144.33;100.00
19843;BME280;10082;51.038;6.992;2023-02-12T02:25:56;106581.28;;;-144.33;100.00
19843;BME280;10082;51.038;6.992;2023-02-12T02:28:48;106808.47;;;-144.33;100.00
19843;BME280;10082;51.038;6.992;2023-02-12T02:31:25;106669.75;;;-144.33;100.00
19843;BME280;10082;51.038;6.992;2023-02-12T02:33:55;106854.69;;;-144.33;100.00
19843;BME280;10082;51.038;6.992;2023-02-12T02:36:31;106784.34;;;-144.33;100.00
19843;BME280;10082;51.038;6.992;2023-02-12T02:39:06;106848.66;;;-144.33;100.00
19843;BME280;10082;51.038;6.992;2023-02-12T02:41:43;106772.28;;;-144.33;100.00
19843;BME280;10082;51.038;6.992;2023-02-12T02:44:13;106808.47;;;-144.33;100.00
19843;BME280;10082;51.038;6.992;2023-02-12T02:46:46;106581.28;;;-144.33;100.00
19843;BME280;10082;51.038;6.992;2023-02-12T02:49:18;106844.66;;;-144.33;100.00
19843;BME280;10082;51.038;6.992;2023-02-12T02:51:50;106730.06;;;-144.33;100.00
19843;BME280;10082;51.038;6.992;2023-02-12T02:54:22;107017.53;;;-144.33;100.00
19843;BME280;10082;51.038;6.992;2023-02-12T02:56:54;106898.91;;;-144.33;100.00
19843;BME280;10082;51.038;6.992;2023-02-12T03:02:51;106844.66;;;-144.33;100.00
19843;BME280;10082;51.038;6.992;2023-02-12T03:05:24;106965.25;;;-144.33;100.00
19843;BME280;10082;51.038;6.992;2023-02-12T03:07:56;106898.91;;;-144.33;100.00
19843;BME280;10082;51.038;6.992;2023-02-12T03:10:26;106910.97;;;-144.33;100.00
19843;BME280;10082;51.038;6.992;2023-02-12T03:12:59;107114.03;;;-144.33;100.00
19843;BME280;10082;51.038;6.992;2023-02-12T03:15:31;107419.66;;;-144.33;100.00
19843;BME280;10082;51.038;6.992;2023-02-12T03:18:04;107196.47;;;-144.33;100.00
19843;BME280;10082;51.038;6.992;2023-02-12T03:20:36;107220.59;;;-144.33;100.00
19843;BME280;10082;51.038;6.992;2023-02-12T03:23:10;107490.03;;;-144.33;100.00
19843;BME280;10082;51.038;6.992;2023-02-12T03:25:44;107492.03;;;-144.33;100.00
19843;BME280;10082;51.038;6.992;2023-02-12T03:28:17;107781.56;;;-144.33;100.00
19843;BME280;10082;51.038;6.992;2023-02-12T03:30:51;107673.00;;;-144.33;100.00
19843;BME280;10082;51.038;6.992;2023-02-12T03:33:28;107502.09;;;-144.33;100.00
19843;BME280;10082;51.038;6.992;2023-02-12T03:36:00;107745.38;;;-144.33;100.00
19843;BME280;10082;51.038;6.992;2023-02-12T03:38:33;107982.66;;;-144.33;100.00
19843;BME280;10082;51.038;6.992;2023-02-12T03:41:05;107996.75;;;-144.33;100.00
19843;BME280;10082;51.038;6.992;2023-02-12T03:43:41;107998.75;;;-144.33;100.00
19843;BME280;10082;51.038;6.992;2023-02-12T03:46:18;107942.44;;;-144.33;100.00
19843;BME280;10082;51.038;6.992;2023-02-12T03:48:56;108067.13;;;-144.33;100.00
19843;BME280;10082;51.038;6.992;2023-02-12T03:51:28;108065.09;;;-144.33;100.00
19843;BME280;10082;51.038;6.992;2023-02-12T03:53:59;108246.09;;;-144.33;100.00
19843;BME280;10082;51.038;6.992;2023-02-12T03:56:31;108143.53;;;-144.33;100.00
19843;BME280;10082;51.038;6.992;2023-02-12T03:58:59;108199.84;;;-144.33;100.00
19843;BME280;10082;51.038;6.992;2023-02-12T04:01:26;108018.84;;;-144.33;100.00
19843;BME280;10082;51.038;6.992;2023-02-12T04:03:56;108053.03;;;-144.33;100.00
19843;BME280;10082;51.038;6.992;2023-02-12T04:06:25;109014.41;;;-144.33;100.00
19843;BME280;10082;51.038;6.992;2023-02-12T04:08:56;109108.94;;;-144.33;100.00
19843;BME280;10082;51.038;6.992;2023-02-12T04:11:30;109066.69;;;-144.33;100.00
19843;BME280;10082;51.038;6.992;2023-02-12T04:14:12;109012.38;;;-144.33;100.00
19843;BME280;10082;51.038;6.992;2023-02-12T04:16:44;108859.53;;;-144.33;100.00
19843;BME280;10082;51.038;6.992;2023-02-12T04:19:21;108921.88;;;-144.33;100.00
19843;BME280;10082;51.038;6.992;2023-02-12T04:22:01;109034.50;;;-144.33;100.00
19843;BME280;10082;51.038;6.992;2023-02-12T04:24:44;109082.78;;;-144.33;100.00
19843;BME280;10082;51.038;6.992;2023-02-12T04:27:20;109020.44;;;-144.33;100.00
19843;BME280;10082;51.038;6.992;2023-02-12T04:29:52;108909.81;;;-144.33;100.00
19843;BME280;10082;51.038;6.992;2023-02-12T04:32:25;108748.91;;;-144.33;100.00
19843;BME280;10082;51.038;6.992;2023-02-12T04:34:58;109012.38;;;-144.33;100.00
19843;BME280;10082;51.038;6.992;2023-02-12T04:37:33;108869.56;;;-144.33;100.00
19843;BME280;10082;51.038;6.992;2023-02-12T04:40:04;108921.88;;;-144.33;100.00
19843;BME280;10082;51.038;6.992;2023-02-12T04:42:40;109104.91;;;-144.33;100.00
19843;BME280;10082;51.038;6.992;2023-02-12T04:45:09;109450.91;;;-144.33;100.00
19843;BME280;10082;51.038;6.992;2023-02-12T04:47:36;109231.63;;;-144.33;100.00
19843;BME280;10082;51.038;6.992;2023-02-12T04:50:06;109129.03;;;-144.33;100.00
19843;BME280;10082;51.038;6.992;2023-02-12T04:52:33;109006.34;;;-144.33;100.00
19843;BME280;10082;51.038;6.992;2023-02-12T04:54:59;109022.44;;;-144.33;100.00
19843;BME280;10082;51.038;6.992;2023-02-12T04:57:26;109066.69;;;-144.33;100.00
19843;BME280;10082;51.038;6.992;2023-02-12T04:59:53;108861.53;;;-144.33;100.00
19843;BME280;10082;51.038;6.992;2023-02-12T05:02:20;108974.16;;;-144.33;100.00
19843;BME280;10082;51.038;6.992;2023-02-12T05:04:48;108881.66;;;-144.33;100.00
19843;BME280;10082;51.038;6.992;2023-02-12T05:07:17;108869.56;;;-144.33;100.00
19843;BME280;10082;51.038;6.992;2023-02-12T05:09:44;108893.72;;;-144.33;100.00
19843;BME280;10082;51.038;6.992;2023-02-12T05:12:11;108980.19;;;-144.33;100.00
19843;BME280;10082;51.038;6.992;2023-02-12T05:14:38;109078.75;;;-144.33;100.00
19843;BME280;10082;51.038;6.992;2023-02-12T05:17:05;108905.78;;;-144.33;100.00
19843;BME280;10082;51.038;6.992;2023-02-12T05:19:32;108937.97;;;-144.33;100.00
19843;BME280;10082;51.038;6.992;2023-02-12T05:21:59;109062.66;;;-144.33;100.00
19843;BME280;10082;51.038;6.992;2023-02-12T05:24:27;108909.81;;;-144.33;100.00
19843;BME280;10082;51.038;6.992;2023-02-12T05:26:54;109006.34;;;-144.33;100.00
19843;BME280;10082;51.038;6.992;2023-02-12T05:29:21;109175.31;;;-144.33;100.00
19843;BME280;10082;51.038;6.992;2023-02-12T05:31:48;109195.44;;;-144.33;100.00
19843;BME280;10082;51.038;6.992;2023-02-12T05:34:15;109277.91;;;-144.33;100.00
19843;BME280;10082;51.038;6.992;2023-02-12T05:36:42;109239.69;;;-144.33;100.00
19843;BME280;10082;51.038;6.992;2023-02-12T05:39:09;109179.34;;;-144.33;100.00
19843;BME280;10082;51.038;6.992;2023-02-12T05:41:39;109263.81;;;-144.33;100.00
19843;BME280;10082;51.038;6.992;2023-02-12T05:44:06;109346.28;;;-144.33;100.00
19843;BME280;10082;51.038;6.992;2023-02-12T05:46:33;109261.81;;;-144.33;100.00
19843;BME280;10082;51.038;6.992;2023-02-12T05:49:00;109237.66;;;-144.33;100.00
19843;BME280;10082;51.038;6.992;2023-02-12T05:51:27;109219.56;;;-144.33;100.00
19843;BME280;10082;51.038;6.992;2023-02-12T05:53:57;109175.31;;;-144.33;100.00
19843;BME280;10082;51.038;6.992;2023-02-12T05:56:27;109203.47;;;-144.33;100.00
19843;BME280;10082;51.038;6.992;2023-02-12T05:58:57;109475.03;;;-144.33;100.00
19843;BME280;10082;51.038;6.992;2023-02-12T06:01:28;109378.47;;;-144.33;100.00
19843;BME280;10082;51.038;6.992;2023-02-12T06:03:57;109475.03;;;-144.33;100.00
19843;BME280;10082;51.038;6.992;2023-02-12T06:06:24;109875.38;;;-144.33;100.00
19843;BME280;10082;51.038;6.992;2023-02-12T06:08:51;109835.13;;;-144.33;100.00
19843;BME280;10082;51.038;6.992;2023-02-12T06:11:19;109782.84;;;-144.33;100.00
19843;BME280;10082;51.038;6.992;2023-02-12T06:13:46;109660.13;;;-144.33;100.00
19843;BME280;10082;51.038;6.992;2023-02-12T06:16:19;109642.00;;;-144.33;100.00
19843;BME280;10082;51.038;6.992;2023-02-12T06:18:48;109728.50;;;-144.33;100.00
19843;BME280;10082;51.038;6.992;2023-02-12T06:21:16;109903.53;;;-144.33;100.00
19843;BME280;10082;51.038;6.992;2023-02-12T06:23:43;109941.75;;;-144.33;100.00
19843;BME280;10082;51.038;6.992;2023-02-12T06:26:10;109851.22;;;-144.33;100.00
19843;BME280;10082;51.038;6.992;2023-02-12T06:28:37;109857.28;;;-144.33;100.00
19843;BME280;10082;51.038;6.992;2023-02-12T06:31:04;110046.38;;;-144.33;100.00
19843;BME280;10082;51.038;6.992;2023-02-12T06:33:33;110185.22;;;-144.33;100.00
19843;BME280;10082;51.038;6.992;2023-02-12T06:36:02;109973.97;;;-144.33;100.00
19843;BME280;10082;51.038;6.992;2023-02-12T06:38:29;110193.25;;;-144.33;100.00
19843;BME280;10082;51.038;6.992;2023-02-12T06:40:56;110187.22;;;-144.33;100.00
19843;BME280;10082;51.038;6.992;2023-02-12T06:43:22;110122.84;;;-144.33;100.00
19843;BME280;10082;51.038;6.992;2023-02-12T06:45:49;110313.97;;;-144.33;100.00
19843;BME280;10082;51.038;6.992;2023-02-12T06:48:16;110299.91;;;-144.33;100.00
19843;BME280;10082;51.038;6.992;2023-02-12T06:50:44;110452.81;;;-144.33;100.00
19843;BME280;10082;51.038;6.992;2023-02-12T06:53:11;110384.41;;;-144.33;100.00
19843;BME280;10082;51.038;6.992;2023-02-12T06:55:38;110511.16;;;-144.33;100.00
19843;BME280;10082;51.038;6.992;2023-02-12T06:58:05;110531.28;;;-144.33;100.00
19843;BME280;10082;51.038;6.992;2023-02-12T07:00:32;110485.00;;;-144.33;100.00
19843;BME280;10082;51.038;6.992;2023-02-12T07:03:09;110483.00;;;-144.33;100.00
19843;BME280;10082;51.038;6.992;2023-02-12T07:05:38;110686.22;;;-144.33;100.00
19843;BME280;10082;51.038;6.992;2023-02-12T07:08:06;110744.59;;;-144.33;100.00
19843;BME280;10082;51.038;6.992;2023-02-12T07:10:33;110740.56;;;-144.33;100.00
19843;BME280;10082;51.038;6.992;2023-02-12T07:13:00;110736.53;;;-144.33;100.00
19843;BME280;10082;51.038;6.992;2023-02-12T07:15:28;110780.81;;;-144.33;100.00
19843;BME280;10082;51.038;6.992;2023-02-12T07:17:55;111112.84;;;-144.33;100.00
19843;BME280;10082;51.038;6.992;2023-02-12T07:20:21;111251.72;;;-144.33;100.00
19843;BME280;10082;51.038;6.992;2023-02-12T07:22:48;111173.22;;;-144.33;100.00
19843;BME280;10082;51.038;6.992;2023-02-12T07:25:17;110845.19;;;-144.33;100.00
19843;BME280;10082;51.038;6.992;2023-02-12T07:27:45;111163.16;;;-144.33;100.00
19843;BME280;10082;51.038;6.992;2023-02-12T07:30:13;111153.09;;;-144.33;100.00
19843;BME280;10082;51.038;6.992;2023-02-12T07:32:40;110913.63;;;-144.33;100.00
19843;BME280;10082;51.038;6.992;2023-02-12T07:35:07;111080.66;;;-144.33;100.00
19843;BME280;10082;51.038;6.992;2023-02-12T07:37:34;111086.69;;;-144.33;100.00
19843;BME280;10082;51.038;6.992;2023-02-12T07:40:01;111128.94;;;-144.33;100.00
19843;BME280;10082;51.038;6.992;2023-02-12T07:42:29;111068.59;;;-144.33;100.00
19843;BME280;10082;51.038;6.992;2023-02-12T07:45:02;111159.13;;;-144.33;100.00
19843;BME280;10082;51.038;6.992;2023-02-12T07:47:29;111000.16;;;-144.33;100.00
19843;BME280;10082;51.038;6.992;2023-02-12T07:49:56;110754.66;;;-144.33;100.00
19843;BME280;10082;51.038;6.992;2023-02-12T07:52:23;110974.00;;;-144.33;100.00
19843;BME280;10082;51.038;6.992;2023-02-12T07:54:50;110965.94;;;-144.33;100.00
19843;BME280;10082;51.038;6.992;2023-02-12T07:57:16;110857.28;;;-144.33;100.00
19843;BME280;10082;51.038;6.992;2023-02-12T07:59:46;110937.78;;;-144.33;100.00
19843;BME280;10082;51.038;6.992;2023-02-12T08:02:12;111310.06;;;-144.33;100.00
19843;BME280;10082;51.038;6.992;2023-02-12T08:04:39;111002.16;;;-144.33;100.00
19843;BME280;10082;51.038;6.992;2023-02-12T08:07:06;111048.44;;;-144.33;100.00
19843;BME280;10082;51.038;6.992;2023-02-12T08:09:33;110800.94;;;-144.33;100.00
19843;BME280;10082;51.038;6.992;2023-02-12T08:12:00;111139.00;;;-144.33;100.00
19843;BME280;10082;51.038;6.992;2023-02-12T08:14:28;111247.69;;;-144.33;100.00
19843;BME280;10082;51.038;6.992;2023-02-12T08:16:56;111173.22;;;-144.33;100.00
19843;BME280;10082;51.038;6.992;2023-02-12T08:19:23;111143.03;;;-144.33;100.00
19843;BME280;10082;51.038;6.992;2023-02-12T08:21:52;111187.31;;;-144.33;100.00
19843;BME280;10082;51.038;6.992;2023-02-12T08:24:20;111368.44;;;-144.33;100.00
19843;BME280;10082;51.038;6.992;2023-02-12T08:26:47;111378.50;;;-144.33;100.00
19843;BME280;10082;51.038;6.992;2023-02-12T08:29:17;111463.03;;;-144.33;100.00
19843;BME280;10082;51.038;6.992;2023-02-12T08:31:46;111561.66;;;-144.33;100.00
19843;BME280;10082;51.038;6.992;2023-02-12T08:34:18;111634.13;;;-144.33;100.00
19843;BME280;10082;51.038;6.992;2023-02-12T08:36:46;111845.44;;;-144.33;100.00
19843;BME280;10082;51.038;6.992;2023-02-12T08:39:14;111940.06;;;-144.33;100.00
19843;BME280;10082;51.038;6.992;2023-02-12T08:41:42;112068.88;;;-144.33;100.00
19843;BME280;10082;51.038;6.992;2023-02-12T08:44:10;111795.13;;;-144.33;100.00
19843;BME280;10082;51.038;6.992;2023-02-12T08:46:39;112169.53;;;-144.33;100.00
19843;BME280;10082;51.038;6.992;2023-02-12T08:49:08;112169.53;;;-144.33;100.00
19843;BME280;10082;51.038;6.992;2023-02-12T08:51:40;112169.53;;;-144.33;100.00
19843;BME280;10082;51.038;6.992;2023-02-12T08:54:11;112169.53;;;-144.33;100.00
19843;BME280;10082;51.038;6.992;2023-02-12T08:56:39;112171.53;;;-144.33;100.00
19843;BME280;10082;51.038;6.992;2023-02-12T08:59:11;112171.53;;;-144.33;100.00
19843;BME280;10082;51.038;6.992;2023-02-12T09:01:39;112171.53;;;-144.33;100.00
19843;BME280;10082;51.038;6.992;2023-02-12T09:04:07;112171.53;;;-144.33;100.00
19843;BME280;10082;51.038;6.992;2023-02-12T09:06:34;112171.53;;;-144.33;100.00
19843;BME280;10082;51.038;6.992;2023-02-12T09:09:03;112171.53;;;-144.33;100.00
19843;BME280;10082;51.038;6.992;2023-02-12T09:11:33;112171.53;;;-144.33;100.00
19843;BME280;10082;51.038;6.992;2023-02-12T09:14:04;112171.53;;;-144.33;100.00
19843;BME280;10082;51.038;6.992;2023-02-12T09:16:35;112171.53;;;-144.33;100.00
19843;BME280;10082;51.038;6.992;2023-02-12T09:19:04;112171.53;;;-144.33;100.00
19843;BME280;10082;51.038;6.992;2023-02-12T09:21:31;112171.53;;;-144.33;100.00
19843;BME280;10082;51.038;6.992;2023-02-12T09:23:59;112171.53;;;-144.33;100.00
19843;BME280;10082;51.038;6.992;2023-02-12T09:26:28;112171.53;;;-144.33;100.00
19843;BME280;10082;51.038;6.992;2023-02-12T09:28:57;112171.53;;;-144.33;100.00
19843;BME280;10082;51.038;6.992;2023-02-12T09:31:25;112171.53;;;-144.33;100.00
19843;BME280;10082;51.038;6.992;2023-02-12T09:33:56;112171.53;;;-144.33;100.00
19843;BME280;10082;51.038;6.992;2023-02-12T09:36:24;112171.53;;;-144.33;100.00
19843;BME280;10082;51.038;6.992;2023-02-12T09:38:54;112171.53;;;-144.33;100.00
19843;BME280;10082;51.038;6.992;2023-02-12T09:44:39;112171.53;;;-144.33;100.00
19843;BME280;10082;51.038;6.992;2023-02-12T09:47:13;112171.53;;;-144.33;100.00
19843;BME280;10082;51.038;6.992;2023-02-12T09:49:55;112171.53;;;-144.33;100.00
19843;BME280;10082;51.038;6.992;2023-02-12T09:52:27;112171.53;;;-144.33;100.00
19843;BME280;10082;51.038;6.992;2023-02-12T09:54:55;112171.53;;;-144.33;100.00
19843;BME280;10082;51.038;6.992;2023-02-12T09:57:26;112171.53;;;-144.33;100.00
19843;BME280;10082;51.038;6.992;2023-02-12T09:59:57;112171.53;;;-144.33;100.00
19843;BME280;10082;51.038;6.992;2023-02-12T10:02:25;112171.53;;;-144.33;100.00
19843;BME280;10082;51.038;6.992;2023-02-12T10:04:53;112171.53;;;-144.33;100.00
19843;BME280;10082;51.038;6.992;2023-02-12T10:07:32;112171.53;;;-144.33;100.00
19843;BME280;10082;51.038;6.992;2023-02-12T10:10:08;112171.53;;;-144.33;100.00
19843;BME280;10082;51.038;6.992;2023-02-12T10:12:46;112171.53;;;-144.33;100.00
19843;BME280;10082;51.038;6.992;2023-02-12T10:15:36;112171.53;;;-144.33;100.00
19843;BME280;10082;51.038;6.992;2023-02-12T10:18:23;112171.53;;;-144.33;100.00
19843;BME280;10082;51.038;6.992;2023-02-12T10:21:05;112171.53;;;-144.33;100.00
19843;BME280;10082;51.038;6.992;2023-02-12T10:23:50;112171.53;;;-144.33;100.00
19843;BME280;10082;51.038;6.992;2023-02-12T10:26:23;112171.53;;;-144.33;100.00
19843;BME280;10082;51.038;6.992;2023-02-12T10:28:54;112171.53;;;-144.33;100.00
19843;BME280;10082;51.038;6.992;2023-02-12T10:31:30;112171.53;;;-144.33;100.00
19843;BME280;10082;51.038;6.992;2023-02-12T10:33:58;112171.53;;;-144.33;100.00
19843;BME280;10082;51.038;6.992;2023-02-12T10:36:38;112171.53;;;-144.33;100.00
19843;BME280;10082;51.038;6.992;2023-02-12T10:39:13;112171.53;;;-144.33;100.00
19843;BME280;10082;51.038;6.992;2023-02-12T10:41:47;112171.53;;;-144.33;100.00
19843;BME280;10082;51.038;6.992;2023-02-12T10:44:17;112171.53;;;-144.33;100.00
19843;BME280;10082;51.038;6.992;2023-02-12T10:46:46;112171.53;;;-144.33;100.00
19843;BME280;10082;51.038;6.992;2023-02-12T10:49:16;112171.53;;;-144.33;100.00
19843;BME280;10082;51.038;6.992;2023-02-12T10:52:01;112171.53;;;-144.33;100.00
19843;BME280;10082;51.038;6.992;2023-02-12T10:54:36;112171.53;;;-144.33;100.00
19843;BME280;10082;51.038;6.992;2023-02-12T10:57:17;112171.53;;;-144.33;100.00
19843;BME280;10082;51.038;6.992;2023-02-12T10:59:49;112171.53;;;-144.33;100.00
19843;BME280;10082;51.038;6.992;2023-02-12T11:02:23;112171.53;;;-144.33;100.00
19843;BME280;10082;51.038;6.992;2023-02-12T11:04:52;112171.53;;;-144.33;100.00
19843;BME280;10082;51.038;6.992;2023-02-12T11:07:21;112171.53;;;-144.33;100.00
19843;BME280;10082;51.038;6.992;2023-02-12T11:09:50;112171.53;;;-144.33;100.00
19843;BME280;10082;51.038;6.992;2023-02-12T11:12:20;112171.53;;;-144.33;100.00
19843;BME280;10082;51.038;6.992;2023-02-12T11:14:52;112171.53;;;-144.33;100.00
19843;BME280;10082;51.038;6.992;2023-02-12T11:17:24;112171.53;;;-144.33;100.00
19843;BME280;10082;51.038;6.992;2023-02-12T11:20:19;112171.53;;;-144.33;100.00
19843;BME280;10082;51.038;6.992;2023-02-12T11:22:51;112171.53;;;-144.33;100.00
19843;BME280;10082;51.038;6.992;2023-02-12T11:25:20;112171.53;;;-144.33;100.00
19843;BME280;10082;51.038;6.992;2023-02-12T11:27:58;112171.53;;;-144.33;100.00
19843;BME280;10082;51.038;6.992;2023-02-12T11:30:28;112171.53;;;-144.33;100.00
19843;BME280;10082;51.038;6.992;2023-02-12T11:33:16;112171.53;;;-144.33;100.00
19843;BME280;10082;51.038;6.992;2023-02-12T11:35:49;112171.53;;;-144.33;100.00
19843;BME280;10082;51.038;6.992;2023-02-12T11:38:26;112171.53;;;-144.33;100.00
19843;BME280;10082;51.038;6.992;2023-02-12T11:40:57;112171.53;;;-144.33;100.00
19843;BME280;10082;51.038;6.992;2023-02-12T11:43:26;112171.53;;;-144.33;100.00
19843;BME280;10082;51.038;6.992;2023-02-12T11:45:58;112171.53;;;-144.33;100.00
19843;BME280;10082;51.038;6.992;2023-02-12T11:48:29;112171.53;;;-144.33;100.00
19843;BME280;10082;51.038;6.992;2023-02-12T11:50:59;112171.53;;;-144.33;100.00
19843;BME280;10082;51.038;6.992;2023-02-12T11:53:29;112171.53;;;-144.33;100.00
19843;BME280;10082;51.038;6.992;2023-02-12T11:56:00;112171.53;;;-144.33;100.00
19843;BME280;10082;51.038;6.992;2023-02-12T11:58:28;112171.53;;;-144.33;100.00
19843;BME280;10082;51.038;6.992;2023-02-12T12:01:02;112171.53;;;-144.33;100.00
19843;BME280;10082;51.038;6.992;2023-02-12T12:03:37;112171.53;;;-144.33;100.00
19843;BME280;10082;51.038;6.992;2023-02-12T12:06:15;112171.53;;;-144.33;100.00
19843;BME280;10082;51.038;6.992;2023-02-12T12:08:48;112171.53;;;-144.33;100.00
19843;BME280;10082;51.038;6.992;2023-02-12T12:11:19;112171.53;;;-144.33;100.00
19843;BME280;10082;51.038;6.992;2023-02-12T12:13:51;112171.53;;;-144.33;100.00
19843;BME280;10082;51.038;6.992;2023-02-12T12:16:28;112171.53;;;-144.33;100.00
19843;BME280;10082;51.038;6.992;2023-02-12T12:22:43;112171.53;;;-144.33;100.00
19843;BME280;10082;51.038;6.992;2023-02-12T12:25:19;112171.53;;;-144.33;100.00
19843;BME280;10082;51.038;6.992;2023-02-12T12:27:56;112171.53;;;-144.33;100.00
19843;BME280;10082;51.038;6.992;2023-02-12T12:30:50;112171.53;;;-144.33;100.00
19843;BME280;10082;51.038;6.992;2023-02-12T12:33:28;112171.53;;;-144.33;100.00
19843;BME280;10082;51.038;6.992;2023-02-12T12:36:22;112171.53;;;-144.33;100.00
19843;BME280;10082;51.038;6.992;2023-02-12T12:39:02;112171.53;;;-144.33;100.00
19843;BME280;10082;51.038;6.992;2023-02-12T12:41:38;112171.53;;;-144.33;100.00
19843;BME280;10082;51.038;6.992;2023-02-12T12:44:25;112171.53;;;-144.33;100.00
19843;BME280;10082;51.038;6.992;2023-02-12T12:47:06;112171.53;;;-144.33;100.00
19843;BME280;10082;51.038;6.992;2023-02-12T12:49:56;112171.53;;;-144.33;100.00
19843;BME280;10082;51.038;6.992;2023-02-12T12:52:44;112171.53;;;-144.33;100.00